Terminal Aerodrome Forecast
Issued by NWS

Home | Current Version | Previous Version | Text Only | Print | Product List | Glossary On
Versions: 1 2 3 4 5 6 7 8 9 10 11 12 13 14 15 16 17
000
FTPQ31 PGUM 231743
TAFGUM
TAF

TAF
PGSN 231743Z 2318/2418 10014G24KT P6SM VCSH FEW018 SCT040 SCT100
      TEMPO 2319/2321 5SM SHRA SCT014 BKN025
     FM240000 11016G28KT P6SM VCSH SCT016 SCT040 BKN100=

USA.gov is the U.S. government's official web portal to all federal, state and local government web resources and services.